Time;durP1;ratioP1;P1;durP2;ratioP2;P2;SDS_P1;SDS_P2;PMS_P1;PMS_P2;Temp;Humidity;BMP_temperature;BMP_pressure;BME280_temperature;BME280_humidity;BME280_pressure;Samples;Min_cycle;Max_cycle;Signal;HPM_P1;HPM_P2
2022/03/23 00:00:49;;;;;;;81.22;48.75;;;8.10;99.90;;;;;;5032687;28;20057;-87
2022/03/23 00:03:15;;;;;;;87.25;51.33;;;8.00;99.90;;;;;;5033603;28;20052;-87
2022/03/23 00:05:41;;;;;;;84.72;50.63;;;7.90;99.90;;;;;;5010819;28;20037;-85
2022/03/23 00:08:10;;;;;;;91.55;54.42;;;7.90;99.90;;;;;;5052458;28;20053;-87
2022/03/23 00:10:36;;;;;;;80.70;50.90;;;7.90;99.90;;;;;;5038283;28;20049;-85
2022/03/23 00:13:03;;;;;;;89.13;54.13;;;7.80;99.90;;;;;;5027530;28;20084;-85
2022/03/23 00:15:30;;;;;;;86.28;50.22;;;7.80;99.90;;;;;;5012698;28;20057;-86
2022/03/23 00:17:56;;;;;;;87.95;52.70;;;7.80;99.90;;;;;;5015922;28;20045;-85
2022/03/23 00:20:22;;;;;;;83.82;50.80;;;7.70;99.90;;;;;;5016616;28;20408;-86
2022/03/23 00:22:47;;;;;;;90.15;52.58;;;7.60;99.90;;;;;;5015792;28;20180;-86
2022/03/23 00:25:14;;;;;;;81.78;48.72;;;7.60;99.90;;;;;;5031490;28;20143;-87
2022/03/23 00:27:40;;;;;;;88.38;51.50;;;7.60;99.90;;;;;;5016300;28;20053;-87
2022/03/23 00:30:06;;;;;;;93.20;54.90;;;7.50;99.90;;;;;;5033265;28;20049;-85
2022/03/23 00:32:32;;;;;;;88.53;52.95;;;7.50;99.90;;;;;;4996656;28;20045;-86
2022/03/23 00:34:58;;;;;;;91.57;52.25;;;7.50;99.90;;;;;;4999247;28;20099;-87
2022/03/23 00:37:23;;;;;;;95.45;54.45;;;7.50;99.90;;;;;;4998871;28;20089;-86
2022/03/23 00:39:50;;;;;;;92.80;54.67;;;7.50;99.90;;;;;;5015329;28;20393;-87
2022/03/23 00:42:16;;;;;;;93.60;55.47;;;7.50;99.90;;;;;;4998726;28;20394;-87
2022/03/23 00:44:42;;;;;;;91.28;53.72;;;7.50;99.90;;;;;;5031449;28;20105;-87
2022/03/23 00:47:07;;;;;;;98.60;54.78;;;7.50;99.90;;;;;;5030974;28;20056;-86
2022/03/23 00:49:33;;;;;;;94.80;53.75;;;7.40;99.90;;;;;;5015180;28;20046;-88
2022/03/23 00:52:02;;;;;;;91.90;53.95;;;7.40;99.90;;;;;;5030926;28;20049;-87
2022/03/23 00:54:28;;;;;;;86.95;52.60;;;7.30;99.90;;;;;;5030889;28;20600;-87
2022/03/23 00:56:53;;;;;;;90.07;51.33;;;7.30;99.90;;;;;;5014588;28;20053;-87
2022/03/23 00:59:19;;;;;;;91.13;53.28;;;8.60;99.90;;;;;;5014275;28;20543;-87
2022/03/23 01:01:45;;;;;;;89.07;53.17;;;7.30;99.90;;;;;;5014750;28;20136;-87
2022/03/23 01:04:13;;;;;;;87.70;52.65;;;7.40;99.90;;;;;;5014299;28;20184;-87
2022/03/23 01:06:39;;;;;;;90.55;50.92;;;7.20;99.90;;;;;;5014623;28;20050;-87
2022/03/23 01:09:05;;;;;;;90.15;52.67;;;7.20;99.90;;;;;;5015253;28;20486;-87
2022/03/23 01:11:31;;;;;;;92.78;54.47;;;7.10;99.90;;;;;;5014070;28;20132;-87
2022/03/23 01:13:56;;;;;;;87.53;52.20;;;7.30;99.90;;;;;;5030699;28;20140;-86
2022/03/23 01:16:22;;;;;;;88.25;50.55;;;7.00;99.90;;;;;;5032061;28;20045;-86
2022/03/23 01:18:48;;;;;;;86.38;49.53;;;6.90;99.90;;;;;;5014452;28;20056;-87
2022/03/23 01:21:13;;;;;;;84.35;51.75;;;7.00;99.90;;;;;;5014057;28;20052;-88
2022/03/23 01:23:39;;;;;;;87.85;52.22;;;7.00;99.90;;;;;;5030957;28;20482;-87
2022/03/23 01:26:05;;;;;;;87.13;53.00;;;8.50;99.90;;;;;;5018746;28;20052;-85
2022/03/23 01:28:31;;;;;;;89.88;51.30;;;6.90;99.90;;;;;;5042909;28;20289;-85
2022/03/23 01:30:57;;;;;;;84.28;50.22;;;7.50;99.90;;;;;;5031773;28;20493;-86
2022/03/23 01:33:22;;;;;;;90.13;51.22;;;6.80;99.90;;;;;;5034137;28;20107;-85
2022/03/23 01:35:48;;;;;;;93.32;53.15;;;6.80;99.90;;;;;;5032862;28;20046;-86
2022/03/23 01:38:14;;;;;;;91.45;53.45;;;6.80;99.90;;;;;;5030828;28;20049;-86
2022/03/23 01:40:40;;;;;;;89.88;51.92;;;6.80;99.90;;;;;;5030629;28;20044;-87
2022/03/23 01:43:05;;;;;;;95.72;52.88;;;6.70;99.90;;;;;;5031140;28;20045;-87
2022/03/23 01:45:31;;;;;;;89.43;52.35;;;6.70;99.90;;;;;;5013130;28;20520;-86
2022/03/23 01:47:57;;;;;;;89.80;51.85;;;6.70;99.90;;;;;;4997350;28;20049;-87
2022/03/23 01:50:23;;;;;;;89.70;51.40;;;6.60;99.90;;;;;;5013164;28;20184;-87
2022/03/23 01:52:48;;;;;;;99.63;56.75;;;6.70;99.90;;;;;;5030434;28;20517;-87
2022/03/23 01:55:14;;;;;;;92.00;53.33;;;6.70;99.90;;;;;;5014048;28;20598;-86
2022/03/23 01:57:42;;;;;;;91.03;54.60;;;7.10;99.90;;;;;;5030374;28;20130;-86
2022/03/23 02:00:08;;;;;;;96.70;52.42;;;6.50;99.90;;;;;;5014274;28;20189;-86
2022/03/23 02:02:34;;;;;;;87.43;51.85;;;6.40;99.90;;;;;;5029712;28;20053;-87
2022/03/23 02:05:01;;;;;;;87.38;53.13;;;6.40;99.90;;;;;;5014069;28;20089;-87
2022/03/23 02:07:27;;;;;;;95.80;53.97;;;6.30;99.90;;;;;;5029985;28;20037;-86
2022/03/23 02:09:52;;;;;;;91.88;53.22;;;6.30;99.90;;;;;;5031033;28;20060;-88
2022/03/23 02:12:18;;;;;;;92.43;52.75;;;6.20;99.90;;;;;;5012929;28;20103;-87
2022/03/23 02:14:45;;;;;;;91.07;51.00;;;7.90;99.90;;;;;;5005965;28;20112;-86
2022/03/23 02:17:12;;;;;;;87.07;51.53;;;6.70;99.90;;;;;;5020234;28;20486;-88
2022/03/23 02:19:37;;;;;;;90.13;51.83;;;6.10;99.90;;;;;;5048201;28;20113;-85
2022/03/23 02:22:03;;;;;;;106.97;56.30;;;6.10;99.90;;;;;;5031714;28;20088;-86
2022/03/23 02:24:30;;;;;;;96.03;53.33;;;6.10;99.90;;;;;;5012829;28;20061;-86
2022/03/23 02:26:56;;;;;;;103.50;58.80;;;6.00;99.90;;;;;;5014069;28;20049;-87
2022/03/23 02:29:23;;;;;;;94.75;54.28;;;6.60;99.90;;;;;;5013372;28;20045;-88
2022/03/23 02:31:48;;;;;;;98.70;54.65;;;6.00;99.90;;;;;;5012805;28;20053;-87
2022/03/23 02:34:14;;;;;;;103.07;54.72;;;6.20;99.90;;;;;;5013474;28;20049;-87
2022/03/23 02:36:40;;;;;;;93.18;52.75;;;6.00;99.90;;;;;;5029214;28;20064;-87
2022/03/23 02:39:05;;;;;;;98.20;56.72;;;5.90;99.90;;;;;;5013484;28;20068;-87
2022/03/23 02:41:31;;;;;;;102.30;57.13;;;5.90;99.90;;;;;;5028752;28;20520;-88
2022/03/23 02:43:59;;;;;;;100.22;55.78;;;6.50;99.90;;;;;;5013424;28;20060;-87
2022/03/23 02:46:25;;;;;;;105.32;57.72;;;5.80;99.90;;;;;;5013104;28;20049;-86
2022/03/23 02:48:54;;;;;;;96.88;54.85;;;5.80;99.90;;;;;;5013042;28;20396;-87
2022/03/23 02:51:19;;;;;;;92.28;52.45;;;5.80;99.90;;;;;;5014145;28;20431;-87
2022/03/23 03:02:20;;;;;;;96.88;53.80;;;5.70;99.90;;;;;;5029951;28;20057;-86
2022/03/23 03:04:47;;;;;;;102.40;58.35;;;5.70;99.90;;;;;;5029906;28;20061;-87
2022/03/23 03:07:12;;;;;;;104.57;58.42;;;5.70;99.90;;;;;;5014230;28;20084;-86
2022/03/23 03:09:38;;;;;;;97.03;56.20;;;5.70;99.90;;;;;;5032684;28;20045;-87
2022/03/23 03:12:04;;;;;;;97.82;56.38;;;5.70;99.90;;;;;;5038348;28;20045;-85
2022/03/23 03:14:31;;;;;;;101.47;57.40;;;5.70;99.90;;;;;;5039667;28;20052;-86
2022/03/23 03:16:57;;;;;;;99.30;55.50;;;5.60;99.90;;;;;;5037501;28;20057;-87
2022/03/23 03:19:22;;;;;;;100.90;56.47;;;6.80;99.90;;;;;;5018418;28;20088;-87
2022/03/23 03:21:48;;;;;;;101.65;55.35;;;6.80;99.90;;;;;;5031100;28;20053;-88
2022/03/23 03:24:13;;;;;;;96.35;54.45;;;7.00;99.90;;;;;;5032798;28;20045;-87
2022/03/23 03:26:39;;;;;;;102.70;56.05;;;5.50;99.90;;;;;;5034476;28;20053;-88
2022/03/23 03:29:05;;;;;;;96.93;54.15;;;5.70;99.90;;;;;;5033360;28;20801;-88
2022/03/23 03:31:31;;;;;;;90.68;53.78;;;6.40;99.90;;;;;;5016679;28;20137;-88
2022/03/23 03:33:56;;;;;;;94.90;54.90;;;5.60;99.90;;;;;;5017266;28;20452;-87
2022/03/23 03:36:22;;;;;;;97.10;54.17;;;5.50;99.90;;;;;;5017132;28;20045;-87
2022/03/23 03:38:48;;;;;;;100.35;57.42;;;5.40;99.90;;;;;;5017119;28;20049;-87
2022/03/23 03:41:14;;;;;;;96.13;53.90;;;5.50;99.90;;;;;;5037991;28;20053;-87
2022/03/23 03:43:39;;;;;;;103.65;57.42;;;5.50;99.90;;;;;;5020197;28;20045;-88
2022/03/23 03:46:06;;;;;;;96.75;54.65;;;5.70;99.90;;;;;;5020203;28;20077;-87
2022/03/23 03:48:32;;;;;;;104.15;56.67;;;5.40;99.90;;;;;;5019780;28;20057;-87
2022/03/23 03:50:59;;;;;;;102.57;57.83;;;6.40;99.90;;;;;;5054894;28;20056;-86
2022/03/23 03:53:24;;;;;;;111.22;58.97;;;5.40;99.90;;;;;;5033791;28;20052;-87
2022/03/23 03:55:50;;;;;;;109.72;61.28;;;5.30;99.90;;;;;;5006409;28;20045;-88
2022/03/23 03:58:17;;;;;;;98.93;56.63;;;5.40;99.90;;;;;;5051042;28;20029;-87
2022/03/23 04:00:43;;;;;;;100.45;57.38;;;5.40;99.90;;;;;;5034775;28;20544;-87
2022/03/23 04:03:09;;;;;;;106.53;60.08;;;5.30;99.90;;;;;;5017465;28;20050;-87
2022/03/23 04:05:34;;;;;;;108.20;60.97;;;5.30;99.90;;;;;;5032555;28;20041;-87
2022/03/23 04:08:00;;;;;;;100.80;57.58;;;5.80;99.90;;;;;;5033488;28;20105;-87
2022/03/23 04:10:26;;;;;;;101.25;57.80;;;5.20;99.90;;;;;;5032698;28;20124;-87
2022/03/23 04:12:52;;;;;;;102.30;58.20;;;5.20;99.90;;;;;;4999693;28;20053;-88
2022/03/23 04:15:20;;;;;;;109.00;60.42;;;5.20;99.90;;;;;;5016438;28;20049;-88
2022/03/23 04:17:45;;;;;;;114.60;62.53;;;6.60;99.90;;;;;;5031714;28;20045;-87
2022/03/23 04:20:12;;;;;;;106.63;60.08;;;5.20;99.90;;;;;;4999110;28;20132;-87
2022/03/23 04:22:38;;;;;;;104.40;60.83;;;5.40;99.90;;;;;;5015117;28;20045;-86
2022/03/23 04:25:13;;;;;;;111.72;60.70;;;5.20;99.90;;;;;;5015905;28;20115;-86
2022/03/23 04:27:45;;;;;;;105.60;59.92;;;5.80;99.90;;;;;;5015755;28;20081;-87
2022/03/23 04:30:12;;;;;;;114.43;58.60;;;5.90;99.90;;;;;;5020546;28;20136;-88
2022/03/23 04:32:38;;;;;;;109.22;61.97;;;5.00;99.90;;;;;;5015908;28;20103;-87
2022/03/23 04:35:05;;;;;;;108.40;61.13;;;5.00;99.90;;;;;;5015330;28;20089;-87
2022/03/23 04:37:31;;;;;;;114.45;62.40;;;5.00;99.90;;;;;;5015961;28;20505;-86
2022/03/23 04:39:56;;;;;;;111.80;61.60;;;4.90;99.90;;;;;;5032282;28;20509;-87
2022/03/23 04:42:22;;;;;;;104.30;59.08;;;4.90;99.90;;;;;;5032574;28;20055;-87
2022/03/23 04:44:48;;;;;;;110.55;59.97;;;5.40;99.90;;;;;;5031721;28;20433;-87
2022/03/23 04:47:13;;;;;;;107.40;61.05;;;6.00;99.90;;;;;;5032453;28;20041;-88
2022/03/23 04:49:39;;;;;;;102.10;59.78;;;4.90;99.90;;;;;;5015082;28;20396;-87
2022/03/23 04:52:06;;;;;;;115.10;65.63;;;4.80;99.90;;;;;;5031748;28;20049;-87
2022/03/23 04:54:31;;;;;;;120.35;62.58;;;4.90;99.90;;;;;;5031779;28;20111;-87
2022/03/23 04:56:57;;;;;;;108.78;61.13;;;4.90;99.90;;;;;;5047969;28;20049;-88
2022/03/23 04:59:23;;;;;;;120.68;65.97;;;4.80;99.90;;;;;;5032038;28;20068;-87
2022/03/23 05:01:49;;;;;;;131.93;70.85;;;5.10;99.90;;;;;;5031674;28;20064;-88
2022/03/23 05:04:20;;;;;;;132.27;71.70;;;4.90;99.90;;;;;;5048541;28;20080;-86
2022/03/23 05:06:46;;;;;;;132.20;72.03;;;5.80;99.90;;;;;;5014650;28;20053;-86
2022/03/23 05:09:11;;;;;;;144.80;74.43;;;4.90;99.90;;;;;;5015212;28;20045;-87
2022/03/23 05:11:37;;;;;;;130.65;68.80;;;5.40;99.90;;;;;;5014575;28;20050;-87
2022/03/23 05:14:03;;;;;;;131.65;69.03;;;4.80;99.90;;;;;;5048064;28;20053;-88
2022/03/23 05:16:29;;;;;;;124.60;66.05;;;6.20;99.90;;;;;;5032211;28;20049;-87
2022/03/23 05:18:55;;;;;;;120.85;65.63;;;4.80;99.90;;;;;;5031103;28;20045;-87
2022/03/23 05:21:20;;;;;;;130.70;64.55;;;4.80;99.90;;;;;;4998734;28;20371;-86
2022/03/23 05:23:46;;;;;;;120.50;65.85;;;4.70;99.90;;;;;;5030752;28;20503;-87
2022/03/23 05:26:12;;;;;;;113.82;63.58;;;4.80;99.90;;;;;;5014521;28;20482;-87
2022/03/23 05:28:37;;;;;;;117.28;65.07;;;6.10;99.90;;;;;;5032434;28;20057;-87
2022/03/23 05:31:03;;;;;;;112.60;63.25;;;4.70;99.90;;;;;;4997766;28;20045;-87
2022/03/23 05:33:29;;;;;;;105.63;59.08;;;4.60;99.90;;;;;;5014825;28;20128;-88
2022/03/23 05:35:55;;;;;;;106.30;61.30;;;4.60;99.90;;;;;;5014709;28;20484;-87
2022/03/23 05:38:20;;;;;;;107.18;60.47;;;4.60;99.90;;;;;;5031185;28;20061;-87
2022/03/23 05:40:46;;;;;;;111.68;60.20;;;4.60;99.90;;;;;;5019451;28;20493;-86
2022/03/23 05:43:11;;;;;;;112.80;62.63;;;4.50;99.90;;;;;;5033953;28;20077;-87
2022/03/23 05:45:37;;;;;;;118.57;65.93;;;5.60;99.90;;;;;;5030792;28;20425;-88
2022/03/23 05:48:04;;;;;;;113.43;63.15;;;4.70;99.90;;;;;;5029884;28;20474;-87
2022/03/23 05:50:29;;;;;;;118.57;66.15;;;4.70;99.90;;;;;;5030828;28;20474;-87
2022/03/23 05:52:55;;;;;;;109.85;63.30;;;4.90;99.90;;;;;;5014131;28;20092;-87
2022/03/23 05:55:21;;;;;;;121.45;68.00;;;5.20;99.90;;;;;;5014083;28;20124;-86
2022/03/23 05:57:46;;;;;;;113.00;64.07;;;5.30;99.90;;;;;;5029867;28;20057;-88
2022/03/23 06:00:12;;;;;;;104.93;59.88;;;5.90;99.90;;;;;;5030650;28;20041;-88
2022/03/23 06:02:39;;;;;;;103.40;61.10;;;5.70;99.90;;;;;;5014010;28;20061;-87
2022/03/23 06:05:06;;;;;;;98.88;55.97;;;5.90;99.90;;;;;;5013967;28;20497;-88
2022/03/23 06:07:31;;;;;;;106.55;59.42;;;6.00;99.90;;;;;;4998239;28;20053;-86
2022/03/23 06:09:59;;;;;;;100.88;61.05;;;7.10;99.90;;;;;;5030501;28;20111;-87
2022/03/23 06:12:25;;;;;;;101.50;59.58;;;6.20;99.90;;;;;;5045048;28;20049;-85
2022/03/23 06:14:51;;;;;;;95.25;56.38;;;6.30;99.90;;;;;;5053480;28;20049;-86
2022/03/23 06:17:16;;;;;;;95.85;58.65;;;6.40;99.90;;;;;;5045998;28;20378;-87
2022/03/23 06:19:42;;;;;;;107.72;62.85;;;6.60;99.90;;;;;;5039568;28;20124;-86
2022/03/23 06:22:08;;;;;;;102.05;59.78;;;6.90;99.90;;;;;;5028686;28;20088;-87
2022/03/23 06:24:34;;;;;;;91.05;57.55;;;7.20;99.90;;;;;;5014246;28;20076;-87
2022/03/23 06:27:00;;;;;;;101.13;58.50;;;7.60;99.90;;;;;;5031567;28;20059;-87
2022/03/23 06:29:26;;;;;;;97.85;58.10;;;8.00;99.90;;;;;;5014111;28;20117;-86
2022/03/23 06:31:51;;;;;;;87.15;55.90;;;8.50;99.90;;;;;;5013612;28;20140;-87
2022/03/23 06:34:17;;;;;;;83.72;55.80;;;9.10;99.90;;;;;;5030735;28;20069;-86
2022/03/23 06:36:43;;;;;;;82.68;55.22;;;9.70;99.90;;;;;;5030218;28;20394;-86
2022/03/23 06:39:08;;;;;;;80.63;54.05;;;10.30;99.90;;;;;;5013648;28;20046;-86
2022/03/23 06:41:34;;;;;;;81.40;54.20;;;10.70;99.90;;;;;;5013996;28;20072;-86
2022/03/23 06:44:00;;;;;;;76.78;53.38;;;10.80;99.90;;;;;;5013518;28;20474;-86
2022/03/23 06:46:31;;;;;;;76.68;53.53;;;11.10;99.90;;;;;;5031128;28;20394;-88
2022/03/23 06:48:57;;;;;;;74.97;52.10;;;11.40;99.90;;;;;;5013363;28;20042;-87
2022/03/23 06:51:23;;;;;;;75.65;53.03;;;11.40;99.90;;;;;;5013978;28;20053;-86
2022/03/23 06:53:49;;;;;;;77.95;53.70;;;11.90;99.90;;;;;;5013839;28;20056;-86
2022/03/23 06:56:14;;;;;;;74.82;51.35;;;12.70;99.90;;;;;;5029836;28;20490;-85
2022/03/23 06:58:40;;;;;;;74.57;53.75;;;13.40;99.90;;;;;;5036344;28;20088;-85
2022/03/23 07:01:06;;;;;;;69.93;50.95;;;13.60;99.90;;;;;;5052305;28;20048;-85
2022/03/23 07:03:31;;;;;;;67.40;49.33;;;13.90;99.90;;;;;;5053914;28;20049;-86
2022/03/23 07:05:57;;;;;;;66.07;49.47;;;14.20;99.90;;;;;;5031326;28;20109;-84
2022/03/23 07:11:07;;;;;;;67.82;49.05;;;14.70;99.90;;;;;;5024534;28;20053;-85
2022/03/23 07:13:32;;;;;;;70.00;51.33;;;15.00;99.90;;;;;;5019671;28;20036;-85
2022/03/23 07:15:58;;;;;;;62.83;48.58;;;15.20;99.90;;;;;;5035640;28;20104;-85
2022/03/23 07:18:24;;;;;;;60.55;44.40;;;15.10;99.90;;;;;;5036035;28;20072;-85
2022/03/23 07:20:50;;;;;;;60.08;46.05;;;15.00;99.90;;;;;;5036132;28;20489;-85
2022/03/23 07:23:15;;;;;;;62.05;44.63;;;13.80;99.90;;;;;;5055316;28;20088;-85
2022/03/23 07:25:41;;;;;;;59.42;45.58;;;14.40;99.90;;;;;;5046029;28;20051;-85
2022/03/23 07:28:07;;;;;;;58.40;43.92;;;15.50;99.90;;;;;;5036933;28;20109;-85
2022/03/23 07:30:35;;;;;;;57.92;44.80;;;16.00;99.90;;;;;;5052686;28;20424;-85
2022/03/23 07:33:02;;;;;;;54.70;43.85;;;15.80;99.90;;;;;;5035782;28;20076;-85
2022/03/23 07:35:28;;;;;;;51.83;40.97;;;15.90;99.90;;;;;;5052575;28;20052;-86
2022/03/23 07:37:53;;;;;;;48.25;39.95;;;16.00;99.90;;;;;;5049874;28;20053;-85
2022/03/23 07:40:19;;;;;;;51.72;41.55;;;15.70;99.90;;;;;;5035671;28;20049;-85
2022/03/23 07:42:45;;;;;;;51.72;39.55;;;16.40;99.90;;;;;;5033202;28;20049;-85
2022/03/23 07:45:11;;;;;;;47.55;38.25;;;15.80;99.90;;;;;;5051831;28;20048;-86
2022/03/23 07:47:37;;;;;;;46.85;36.92;;;16.10;99.90;;;;;;5035742;28;20049;-86
2022/03/23 07:50:03;;;;;;;46.17;37.83;;;16.50;99.90;;;;;;5051824;28;20049;-85
2022/03/23 07:52:29;;;;;;;45.55;36.78;;;16.80;99.90;;;;;;5015040;28;20048;-84
2022/03/23 07:54:55;;;;;;;48.72;38.03;;;17.10;99.90;;;;;;5033139;28;20056;-85
2022/03/23 07:57:20;;;;;;;46.13;36.85;;;16.30;99.90;;;;;;5032214;28;20209;-85
2022/03/23 07:59:46;;;;;;;42.90;35.33;;;17.20;99.90;;;;;;5035702;28;20071;-85
2022/03/23 08:02:12;;;;;;;45.58;35.15;;;17.30;99.90;;;;;;5017540;28;20049;-86
2022/03/23 08:04:38;;;;;;;45.33;34.85;;;17.10;99.90;;;;;;5051507;28;20119;-85
2022/03/23 08:07:03;;;;;;;44.15;34.47;;;17.50;99.90;;;;;;5035249;28;20053;-85
2022/03/23 08:09:29;;;;;;;47.72;36.92;;;17.90;99.90;;;;;;5051080;28;20048;-83
2022/03/23 08:11:56;;;;;;;40.25;34.50;;;17.70;99.90;;;;;;5034988;28;20055;-84
2022/03/23 08:14:22;;;;;;;41.88;36.45;;;18.20;99.90;;;;;;5048490;28;20202;-85
2022/03/23 08:16:48;;;;;;;42.97;33.40;;;18.70;99.90;;;;;;5048080;28;20052;-85
2022/03/23 08:19:13;;;;;;;38.42;34.22;;;18.50;99.90;;;;;;5017088;28;20053;-86
2022/03/23 08:21:40;;;;;;;39.03;33.08;;;18.80;99.90;;;;;;5031669;28;20076;-84
2022/03/23 08:24:06;;;;;;;36.28;32.15;;;19.40;99.90;;;;;;5049645;28;20057;-84
2022/03/23 08:26:32;;;;;;;34.65;29.80;;;19.80;99.60;;;;;;5046734;28;20048;-84
2022/03/23 08:28:57;;;;;;;39.08;30.80;;;19.70;98.40;;;;;;5028252;28;20049;-84
2022/03/23 08:31:23;;;;;;;34.20;30.50;;;19.80;98.20;;;;;;5010825;28;20047;-84
2022/03/23 08:33:49;;;;;;;33.42;29.83;;;20.10;96.50;;;;;;5018874;28;20088;-84
2022/03/23 08:36:14;;;;;;;34.60;29.00;;;20.30;95.20;;;;;;5068821;28;20048;-84
2022/03/23 08:38:40;;;;;;;33.83;28.60;;;20.40;94.40;;;;;;5067208;28;20067;-85
2022/03/23 08:41:06;;;;;;;32.88;28.60;;;20.20;93.70;;;;;;5037454;28;20155;-84
2022/03/23 08:43:31;;;;;;;31.02;27.73;;;20.40;91.40;;;;;;5051786;28;20048;-83
2022/03/23 08:45:59;;;;;;;32.83;26.40;;;20.90;88.70;;;;;;5018192;28;20637;-84
2022/03/23 08:48:25;;;;;;;30.00;26.30;;;20.60;88.00;;;;;;5018137;28;20048;-84
2022/03/23 08:50:50;;;;;;;29.00;26.00;;;20.40;87.60;;;;;;5017671;28;20564;-82
2022/03/23 08:53:16;;;;;;;30.83;26.98;;;19.90;88.00;;;;;;5033263;28;20429;-85
2022/03/23 08:55:42;;;;;;;29.10;25.83;;;20.50;87.50;;;;;;5033664;28;20045;-84
2022/03/23 08:58:09;;;;;;;35.17;27.73;;;19.90;86.00;;;;;;5034054;28;20122;-84
2022/03/23 09:00:35;;;;;;;27.98;24.73;;;20.50;88.50;;;;;;5014378;28;20053;-85
2022/03/23 09:03:00;;;;;;;27.65;24.70;;;21.00;82.70;;;;;;5031003;28;20047;-84
2022/03/23 09:05:26;;;;;;;28.35;25.33;;;21.00;81.00;;;;;;5032753;28;20061;-84
2022/03/23 09:07:52;;;;;;;26.73;23.55;;;21.50;83.30;;;;;;5059784;28;20475;-84
2022/03/23 09:10:19;;;;;;;25.65;22.90;;;21.20;78.80;;;;;;5053545;28;20107;-84
2022/03/23 09:12:45;;;;;;;25.20;22.08;;;21.20;76.80;;;;;;5051491;28;20045;-85
2022/03/23 09:15:12;;;;;;;26.17;21.23;;;21.50;74.30;;;;;;5033495;28;20052;-84
2022/03/23 09:17:38;;;;;;;23.95;21.40;;;21.10;73.80;;;;;;5018217;28;20115;-84
2022/03/23 09:20:04;;;;;;;25.50;21.80;;;21.20;73.80;;;;;;4999236;28;20092;-84
2022/03/23 09:22:34;;;;;;;24.20;21.63;;;21.10;75.10;;;;;;5043791;28;20045;-84
2022/03/23 09:25:08;;;;;;;25.02;22.40;;;21.60;71.80;;;;;;5048662;28;20049;-84
2022/03/23 09:27:38;;;;;;;25.95;23.15;;;21.80;71.20;;;;;;4999710;28;20093;-83
2022/03/23 09:30:07;;;;;;;27.55;21.20;;;21.70;71.00;;;;;;5015774;28;20140;-86
2022/03/23 09:32:33;;;;;;;20.13;17.98;;;22.50;70.90;;;;;;5016486;28;20128;-84
2022/03/23 09:34:59;;;;;;;20.85;18.48;;;22.10;63.50;;;;;;5050341;28;20135;-83
2022/03/23 09:40:09;;;;;;;;;;;22.00;61.10;;;;;;5035395;28;20053;-85
2022/03/23 09:42:34;;;;;;;17.42;15.55;;;21.60;58.50;;;;;;5033863;28;19927;-86
2022/03/23 09:45:00;;;;;;;21.25;16.80;;;21.70;59.60;;;;;;5033743;28;20045;-87
2022/03/23 09:47:26;;;;;;;18.30;16.40;;;21.50;57.50;;;;;;5017134;28;20052;-87
2022/03/23 09:49:52;;;;;;;19.35;17.05;;;21.50;58.60;;;;;;5017517;28;20041;-86
2022/03/23 09:52:17;;;;;;;20.30;17.17;;;21.70;59.10;;;;;;5033546;28;20227;-88
2022/03/23 09:54:45;;;;;;;20.55;18.38;;;21.30;59.40;;;;;;5050201;28;20218;-90
2022/03/23 09:57:11;;;;;;;20.35;17.20;;;21.90;60.30;;;;;;5050084;28;20550;-86
2022/03/23 09:59:37;;;;;;;21.02;17.83;;;21.80;60.90;;;;;;5033070;28;20051;-87
2022/03/23 10:02:03;;;;;;;19.38;17.48;;;22.10;60.70;;;;;;5051147;28;20048;-86
2022/03/23 10:05:02;;;;;;;20.08;18.02;;;22.30;60.40;;;;;;5049758;28;20388;-88
2022/03/23 10:07:36;;;;;;;22.65;18.88;;;21.90;60.10;;;;;;5049530;28;20123;-91
2022/03/23 10:10:32;;;;;;;20.88;18.67;;;22.30;60.60;;;;;;5014002;28;20052;-86
2022/03/23 10:13:17;;;;;;;22.08;19.00;;;22.90;59.70;;;;;;5042585;28;20111;-87
2022/03/23 10:16:02;;;;;;;23.02;16.90;;;23.30;60.60;;;;;;5045440;28;20268;-91
2022/03/23 10:18:53;;;;;;;18.17;16.30;;;22.90;57.50;;;;;;5033123;28;20393;-91
2022/03/23 10:21:39;;;;;;;15.75;13.90;;;21.80;56.70;;;;;;5028560;28;20055;-89
2022/03/23 10:24:04;;;;;;;19.98;15.85;;;21.70;56.10;;;;;;5048173;28;20053;-89
2022/03/23 10:26:32;;;;;;;19.95;16.98;;;21.30;56.50;;;;;;5048457;28;20060;-87
2022/03/23 10:28:58;;;;;;;20.77;18.25;;;21.00;58.00;;;;;;5029884;28;20455;-86
2022/03/23 10:31:25;;;;;;;20.35;17.45;;;20.70;58.70;;;;;;5015717;28;20094;-89
2022/03/23 10:34:07;;;;;;;22.42;17.27;;;20.60;58.50;;;;;;5052496;28;20128;-88
2022/03/23 10:36:34;;;;;;;22.95;17.50;;;20.30;58.30;;;;;;5037924;28;20049;-91
2022/03/23 10:39:01;;;;;;;23.02;18.20;;;20.60;60.40;;;;;;5020835;28;20061;-85
2022/03/23 10:41:27;;;;;;;22.77;18.80;;;20.70;59.70;;;;;;5053075;28;20107;-85
2022/03/23 10:43:53;;;;;;;19.95;17.85;;;20.40;60.50;;;;;;5037737;28;20040;-87
2022/03/23 10:46:18;;;;;;;20.52;18.30;;;20.50;61.20;;;;;;5018690;28;20041;-87
2022/03/23 10:48:51;;;;;;;20.73;18.10;;;20.50;60.90;;;;;;5054656;28;20037;-87
2022/03/23 10:51:30;;;;;;;22.15;18.35;;;20.60;60.10;;;;;;5051872;28;20545;-86
2022/03/23 10:53:56;;;;;;;19.02;16.77;;;20.70;59.80;;;;;;5070463;28;20091;-88
2022/03/23 10:56:34;;;;;;;18.23;16.33;;;20.50;58.80;;;;;;5040689;28;20076;-84
2022/03/23 10:59:15;;;;;;;18.88;14.57;;;20.60;58.20;;;;;;5044129;28;20088;-86
2022/03/23 11:02:02;;;;;;;18.50;15.65;;;20.40;57.10;;;;;;5070425;28;20056;-86
2022/03/23 11:04:30;;;;;;;22.00;17.60;;;20.70;57.30;;;;;;5041197;28;20056;-84
2022/03/23 11:06:58;;;;;;;18.90;15.60;;;20.40;58.20;;;;;;5069034;28;20398;-85
2022/03/23 11:17:48;;;;;;;21.63;16.08;;;19.50;58.40;;;;;;5048449;28;20089;-85
2022/03/23 11:20:15;;;;;;;25.80;16.80;;;19.10;59.30;;;;;;5050274;28;20087;-80
2022/03/23 11:22:41;;;;;;;22.65;16.25;;;18.90;60.30;;;;;;5053171;28;20049;-81
2022/03/23 11:25:07;;;;;;;29.67;16.38;;;18.70;60.60;;;;;;5051197;28;20044;-89
2022/03/23 11:27:33;;;;;;;25.40;16.65;;;18.80;61.50;;;;;;5052636;28;20388;-84
2022/03/23 11:29:58;;;;;;;21.42;15.15;;;19.00;61.50;;;;;;5033079;28;20493;-84
2022/03/23 11:32:27;;;;;;;29.42;17.10;;;19.20;59.90;;;;;;5033371;28;20125;-88
2022/03/23 11:34:53;;;;;;;26.75;16.42;;;18.70;60.30;;;;;;5037801;28;20041;-87
2022/03/23 11:37:19;;;;;;;22.23;13.82;;;18.60;60.40;;;;;;5036824;28;20407;-85
2022/03/23 11:39:45;;;;;;;21.83;15.63;;;18.70;60.70;;;;;;5028064;28;20104;-85
2022/03/23 11:42:11;;;;;;;20.90;14.40;;;18.60;60.30;;;;;;5035518;28;20168;-85
2022/03/23 11:44:37;;;;;;;25.23;14.52;;;18.90;60.50;;;;;;5017744;28;20099;-86
2022/03/23 11:47:06;;;;;;;21.40;15.27;;;18.80;61.00;;;;;;5053720;28;20067;-84
2022/03/23 11:49:48;;;;;;;18.88;12.35;;;18.70;60.90;;;;;;5036666;28;20049;-84
2022/03/23 11:52:22;;;;;;;21.75;13.38;;;19.10;60.30;;;;;;5036580;28;20456;-85
2022/03/23 11:58:02;;;;;;;20.15;12.63;;;18.70;60.70;;;;;;5049489;28;20075;-84
2022/03/23 12:00:28;;;;;;;24.02;11.48;;;18.80;61.20;;;;;;5035931;28;20578;-85
2022/03/23 12:02:54;;;;;;;21.58;11.30;;;18.70;60.50;;;;;;5036741;28;20049;-84
2022/03/23 12:05:24;;;;;;;22.23;11.20;;;18.60;60.80;;;;;;5036565;28;20310;-85
2022/03/23 12:07:50;;;;;;;26.98;11.60;;;18.50;60.50;;;;;;5036134;28;20477;-85
2022/03/23 12:10:23;;;;;;;27.08;11.63;;;18.50;61.10;;;;;;5052840;28;20044;-84
2022/03/23 12:12:49;;;;;;;19.80;11.90;;;18.60;61.00;;;;;;5019719;28;20543;-85
2022/03/23 12:15:23;;;;;;;21.02;9.40;;;18.80;60.00;;;;;;5036638;28;20045;-86
2022/03/23 12:17:58;;;;;;;16.02;9.95;;;18.70;60.00;;;;;;5048852;28;20048;-83
2022/03/23 12:20:31;;;;;;;19.88;10.77;;;18.80;60.40;;;;;;5037416;28;20079;-87
2022/03/23 12:23:32;;;;;;;24.23;12.63;;;19.00;59.90;;;;;;5023120;28;20108;-84
2022/03/23 12:26:10;;;;;;;20.40;8.95;;;19.00;62.40;;;;;;5032607;28;20057;-85
2022/03/23 12:28:43;;;;;;;23.73;8.25;;;19.10;62.10;;;;;;5057224;28;20125;-86
2022/03/23 12:31:11;;;;;;;18.63;9.05;;;18.80;61.10;;;;;;5039393;28;20057;-85
2022/03/23 12:34:06;;;;;;;16.05;7.88;;;18.90;61.20;;;;;;5006168;28;20523;-84
2022/03/23 12:37:01;;;;;;;20.83;8.25;;;18.90;61.30;;;;;;5035649;28;20080;-85
2022/03/23 12:39:37;;;;;;;25.48;9.95;;;19.20;61.20;;;;;;5037074;28;20080;-84
2022/03/23 12:42:30;;;;;;;16.65;5.80;;;19.00;60.60;;;;;;5023575;28;20060;-82
2022/03/23 12:45:06;;;;;;;18.67;7.50;;;18.90;61.20;;;;;;5015336;28;20057;-83
2022/03/23 12:47:32;;;;;;;19.80;8.75;;;19.20;61.70;;;;;;5035667;28;20053;-83
2022/03/23 12:58:24;;;;;;;22.23;8.00;;;19.10;62.10;;;;;;5038280;28;20088;-84
2022/03/23 13:00:50;;;;;;;27.42;8.52;;;19.10;63.30;;;;;;5035851;28;20146;-84
2022/03/23 13:03:19;;;;;;;23.30;8.88;;;19.00;62.00;;;;;;5036207;28;20053;-84
2022/03/23 13:05:59;;;;;;;20.55;10.23;;;19.10;62.60;;;;;;5052421;28;20060;-84